Time;durP1;ratioP1;P1;durP2;ratioP2;P2;SDS_P1;SDS_P2;PMS_P1;PMS_P2;Temp;Humidity;BMP_temperature;BMP_pressure;BME280_temperature;BME280_humidity;BME280_pressure;Samples;Min_cycle;Max_cycle;Signal;HPM_P1;HPM_P2
2021/05/08 00:02:03;;;;;;;14.33;10.32;;;;;;;11.29;100.00;99143.72;1669934;85;21206;-75
2021/05/08 00:04:31;;;;;;;18.00;11.08;;;;;;;11.32;100.00;99150.16;1669594;85;21811;-76
2021/05/08 00:07:02;;;;;;;17.32;11.78;;;;;;;11.33;100.00;99144.77;1669801;85;21206;-76
2021/05/08 00:09:33;;;;;;;21.52;12.15;;;;;;;11.34;100.00;99140.34;1669541;85;21347;-77
2021/05/08 00:12:04;;;;;;;;;;;;;;;11.33;100.00;99130.28;1683205;85;21668;-77
2021/05/08 00:14:32;;;;;;;14.50;10.23;;;;;;;11.35;100.00;99126.25;1673395;84;20335;-76
2021/05/08 00:17:00;;;;;;;13.25;8.90;;;;;;;11.35;100.00;99117.02;1685819;85;21549;-75
2021/05/08 00:19:30;;;;;;;13.65;9.73;;;;;;;11.36;100.00;99120.02;1685763;84;21118;-77
2021/05/08 00:21:58;;;;;;;14.13;10.40;;;;;;;11.38;100.00;99128.70;1685669;85;21225;-77
2021/05/08 00:24:26;;;;;;;14.30;10.68;;;;;;;11.37;100.00;99128.34;1678414;85;21227;-77
2021/05/08 00:26:54;;;;;;;13.80;8.28;;;;;;;11.35;100.00;99124.93;1668209;85;21150;-78
2021/05/08 00:29:22;;;;;;;21.45;11.00;;;;;;;11.33;100.00;99113.62;1650627;86;21221;-78
2021/05/08 00:31:50;;;;;;;16.48;10.98;;;;;;;11.34;100.00;99102.13;1645406;85;21244;-77
2021/05/08 00:34:18;;;;;;;16.77;11.22;;;;;;;11.33;100.00;99097.33;1639199;86;21244;-77
2021/05/08 00:36:46;;;;;;;13.13;9.95;;;;;;;11.35;100.00;99103.84;1636428;87;21203;-78
2021/05/08 00:39:14;;;;;;;14.25;10.35;;;;;;;11.36;100.00;99102.05;1657088;86;21134;-77
2021/05/08 00:41:42;;;;;;;15.18;10.78;;;;;;;11.35;100.00;99106.48;1657296;86;21387;-77
2021/05/08 00:44:10;;;;;;;14.87;9.90;;;;;;;11.35;100.00;99103.84;1639720;86;21201;-78
2021/05/08 00:46:41;;;;;;;14.45;10.88;;;;;;;11.35;100.00;99106.48;1657222;85;26355;-83
2021/05/08 00:49:09;;;;;;;17.50;10.98;;;;;;;11.35;100.00;99105.16;1657033;86;21202;-84
2021/05/08 00:51:38;;;;;;;14.87;10.80;;;;;;;11.34;100.00;99102.13;1640014;86;21198;-84
2021/05/08 00:54:06;;;;;;;13.38;10.00;;;;;;;11.34;100.00;99106.08;1657000;86;21383;-83
2021/05/08 00:56:34;;;;;;;11.00;7.90;;;;;;;11.32;100.00;99098.75;1656813;86;21701;-82
2021/05/08 00:59:03;;;;;;;14.18;9.33;;;;;;;11.31;100.00;99104.95;1639636;86;21216;-83
2021/05/08 01:01:32;;;;;;;16.23;11.57;;;;;;;11.30;100.00;99095.35;1656906;86;21181;-83
2021/05/08 01:04:01;;;;;;;18.60;9.43;;;;;;;11.28;99.92;99103.81;1657252;86;21150;-81
2021/05/08 01:06:31;;;;;;;16.77;10.80;;;;;;;11.27;99.81;99092.87;1639692;86;21820;-83
2021/05/08 01:09:02;;;;;;;12.20;10.08;;;;;;;11.25;99.66;99082.88;1656908;86;21348;-83
2021/05/08 01:11:30;;;;;;;18.92;11.10;;;;;;;11.21;99.50;99080.06;1656981;86;21232;-80
2021/05/08 01:13:59;;;;;;;15.95;10.10;;;;;;;11.18;99.44;99080.21;1657108;86;21699;-80
2021/05/08 01:16:29;;;;;;;13.55;10.53;;;;;;;11.15;99.42;99085.66;1657855;84;21189;-76
2021/05/08 01:18:59;;;;;;;14.80;9.28;;;;;;;11.13;99.43;99076.08;1701229;84;21351;-79
2021/05/08 01:21:27;;;;;;;15.60;10.40;;;;;;;11.12;99.34;99066.45;1674829;84;21270;-79
2021/05/08 01:23:56;;;;;;;14.68;10.08;;;;;;;11.09;99.31;99073.22;1701086;84;21219;-76
2021/05/08 01:26:24;;;;;;;13.25;9.70;;;;;;;11.11;99.29;99087.61;1701245;84;21155;-76
2021/05/08 01:28:52;;;;;;;16.07;10.13;;;;;;;11.10;99.23;99101.25;1702303;84;21206;-78
2021/05/08 01:31:20;;;;;;;14.85;9.53;;;;;;;11.08;99.26;99095.69;1702453;84;22139;-77
2021/05/08 01:33:49;;;;;;;12.05;8.28;;;;;;;11.09;99.48;99097.41;1714980;83;21687;-77
2021/05/08 01:36:17;;;;;;;14.98;9.90;;;;;;;11.09;99.57;99107.47;1701138;83;21232;-79
2021/05/08 01:38:45;;;;;;;13.13;9.80;;;;;;;11.09;99.56;99117.17;1725932;83;21224;-81
2021/05/08 01:41:14;;;;;;;11.00;7.55;;;;;;;11.07;99.50;99122.98;1701274;83;21178;-77
2021/05/08 01:43:42;;;;;;;17.32;10.28;;;;;;;11.07;99.63;99119.88;1726080;83;21378;-78
2021/05/08 01:46:10;;;;;;;14.05;9.90;;;;;;;11.06;99.63;99106.30;1725927;83;21388;-77
2021/05/08 01:48:42;;;;;;;13.98;9.25;;;;;;;11.05;99.58;99104.63;1725658;83;21161;-77
2021/05/08 01:51:13;;;;;;;14.60;10.53;;;;;;;11.06;99.62;99107.63;1726074;83;21201;-78
2021/05/08 01:53:41;;;;;;;17.02;10.90;;;;;;;11.07;99.64;99107.18;1725968;83;21141;-78
2021/05/08 01:56:09;;;;;;;14.73;10.82;;;;;;;11.09;99.74;99094.77;1725900;83;21405;-79
2021/05/08 01:58:38;;;;;;;15.78;11.53;;;;;;;11.13;99.79;99094.52;1725729;83;21149;-80
2021/05/08 02:01:06;;;;;;;16.32;11.38;;;;;;;11.15;99.70;99086.98;1725973;83;21193;-80
2021/05/08 02:03:36;;;;;;;15.13;11.35;;;;;;;11.14;99.68;99095.36;1725078;83;21200;-78
2021/05/08 02:06:05;;;;;;;14.90;10.68;;;;;;;11.14;99.67;99098.00;1726035;83;21209;-81
2021/05/08 02:08:59;;;;;;;13.62;10.10;;;;;;;11.19;99.59;99099.06;1819364;76;28560;-82
2021/05/08 02:11:30;;;;;;;12.25;9.45;;;;;;;11.11;99.53;99105.61;1783139;79;21250;-82
2021/05/08 02:13:59;;;;;;;13.62;9.55;;;;;;;11.06;99.64;99098.40;1783988;79;22397;-81
2021/05/08 02:16:26;;;;;;;17.65;11.25;;;;;;;11.01;99.75;99093.86;1783699;79;21183;-77
2021/05/08 02:18:55;;;;;;;15.93;10.82;;;;;;;11.01;99.87;99105.72;1783513;79;21195;-76
2021/05/08 02:21:23;;;;;;;15.95;11.30;;;;;;;11.00;99.99;99108.45;1783823;80;21163;-79
2021/05/08 02:23:52;;;;;;;18.07;12.88;;;;;;;11.00;100.00;99105.82;1783772;79;21785;-78
2021/05/08 02:26:21;;;;;;;19.20;13.43;;;;;;;10.99;100.00;99107.58;1783814;79;21340;-80
2021/05/08 02:28:50;;;;;;;16.55;12.33;;;;;;;11.01;100.00;99108.34;1783741;79;21586;-79
2021/05/08 02:31:18;;;;;;;18.32;12.45;;;;;;;11.01;100.00;99114.94;1784596;79;21171;-80
2021/05/08 02:33:53;;;;;;;18.30;13.50;;;;;;;11.03;100.00;99117.02;1782276;78;21186;-75
2021/05/08 02:36:21;;;;;;;18.98;13.60;;;;;;;11.03;100.00;99117.50;1780029;80;21210;-75
2021/05/08 02:38:50;;;;;;;19.42;13.15;;;;;;;11.04;100.00;99121.38;1779335;80;21372;-75
2021/05/08 02:41:18;;;;;;;18.77;13.85;;;;;;;11.06;100.00;99119.48;1779539;80;21190;-77
2021/05/08 02:43:46;;;;;;;18.82;13.55;;;;;;;11.08;100.00;99111.03;1779492;79;21214;-80
2021/05/08 02:46:16;;;;;;;19.90;13.32;;;;;;;11.09;100.00;99111.42;1779539;79;21580;-80
2021/05/08 02:48:44;;;;;;;19.23;13.93;;;;;;;11.10;100.00;99115.75;1749404;80;21179;-81
2021/05/08 02:51:13;;;;;;;18.35;12.03;;;;;;;11.11;100.00;99116.15;1779627;79;21622;-78
2021/05/08 02:53:41;;;;;;;13.00;8.90;;;;;;;11.11;100.00;99107.37;1779283;79;21255;-78
2021/05/08 02:56:10;;;;;;;15.85;10.82;;;;;;;11.10;100.00;99107.84;1779384;79;21711;-78
2021/05/08 02:58:41;;;;;;;;;;;;;;;11.13;100.00;99112.96;1782630;79;21222;-78
2021/05/08 03:01:08;;;;;;;20.35;13.62;;;;;;;11.15;100.00;99106.27;1781639;79;20297;-76
2021/05/08 03:03:37;;;;;;;18.80;12.75;;;;;;;11.15;100.00;99106.27;1782161;79;22311;-76
2021/05/08 03:06:06;;;;;;;13.88;10.63;;;;;;;11.16;100.00;99097.89;1782136;80;21309;-78
2021/05/08 03:08:36;;;;;;;18.40;10.90;;;;;;;11.15;100.00;99100.16;1781707;79;21171;-77
2021/05/08 03:11:05;;;;;;;16.02;10.75;;;;;;;11.18;100.00;99105.25;1781556;80;21155;-78
2021/05/08 03:13:35;;;;;;;15.23;10.40;;;;;;;11.19;100.00;99105.64;1782204;80;21622;-78
2021/05/08 03:16:04;;;;;;;16.93;11.12;;;;;;;11.18;99.88;99103.92;1782331;79;21857;-78
2021/05/08 03:18:33;;;;;;;15.15;10.98;;;;;;;11.18;99.84;99106.56;1781937;80;21211;-78
2021/05/08 03:21:02;;;;;;;10.93;8.75;;;;;;;11.19;99.95;99100.38;1781584;80;21191;-78
2021/05/08 03:23:31;;;;;;;12.63;9.83;;;;;;;11.21;99.88;99080.06;1781331;79;21230;-79
2021/05/08 03:26:00;;;;;;;13.70;10.40;;;;;;;11.22;99.91;99064.14;1781468;79;21218;-78
2021/05/08 03:28:29;;;;;;;12.45;9.05;;;;;;;11.20;99.72;99058.10;1781519;80;21119;-79
2021/05/08 03:30:59;;;;;;;12.70;8.93;;;;;;;11.19;99.66;99071.39;1781850;79;21654;-79
2021/05/08 03:33:27;;;;;;;12.43;7.60;;;;;;;11.21;99.67;99087.48;1781562;79;21244;-80
2021/05/08 03:35:55;;;;;;;14.63;9.43;;;;;;;11.24;99.70;99101.80;1781606;80;21174;-79
2021/05/08 03:38:23;;;;;;;15.43;9.53;;;;;;;11.26;99.58;99105.68;1781446;79;21167;-77
2021/05/08 03:40:51;;;;;;;12.20;8.93;;;;;;;11.26;99.65;99110.47;1781509;80;21367;-80
2021/05/08 03:43:20;;;;;;;11.40;8.70;;;;;;;11.28;99.69;99109.08;1781371;79;21162;-82
2021/05/08 03:45:50;;;;;;;13.35;9.68;;;;;;;11.29;99.74;99114.72;1781739;80;21210;-82
2021/05/08 03:48:19;;;;;;;16.05;11.43;;;;;;;11.30;99.76;99101.47;1781776;79;21598;-81
2021/05/08 03:50:47;;;;;;;14.73;10.25;;;;;;;11.30;99.62;99094.03;1781514;79;21183;-77
2021/05/08 03:53:15;;;;;;;15.60;8.75;;;;;;;11.30;99.58;99082.17;1781547;79;22136;-85
2021/05/08 03:55:44;;;;;;;14.30;10.45;;;;;;;11.33;99.52;99088.58;1782998;79;21110;-85
2021/05/08 03:58:14;;;;;;;13.62;9.50;;;;;;;11.33;99.43;99084.63;1783556;79;21147;-85
2021/05/08 04:00:42;;;;;;;14.10;10.03;;;;;;;11.35;99.46;99090.66;1783750;80;21250;-90
2021/05/08 04:03:10;;;;;;;14.25;9.90;;;;;;;11.37;99.48;99086.63;1749533;82;21262;-85
2021/05/08 04:05:38;;;;;;;13.58;9.30;;;;;;;11.38;99.55;99097.55;1750165;82;21566;-85
2021/05/08 04:08:06;;;;;;;11.43;9.13;;;;;;;11.40;99.54;99095.20;1731597;78;21170;-86
2021/05/08 04:10:33;;;;;;;13.85;9.90;;;;;;;11.42;99.49;99095.97;1750052;82;21203;-85
2021/05/08 04:13:01;;;;;;;14.38;10.35;;;;;;;11.47;99.67;99089.95;1732109;82;21244;-85
2021/05/08 04:15:29;;;;;;;15.50;10.20;;;;;;;11.53;99.75;99095.36;1784259;80;21163;-87
2021/05/08 04:17:57;;;;;;;13.30;9.88;;;;;;;11.59;99.63;99099.42;1719619;82;21271;-84
2021/05/08 04:20:27;;;;;;;12.45;9.70;;;;;;;11.62;99.37;99101.87;1719290;83;21702;-86
2021/05/08 04:22:54;;;;;;;15.65;10.68;;;;;;;11.68;99.19;99105.48;1701894;82;21123;-86
2021/05/08 04:25:22;;;;;;;14.20;10.60;;;;;;;11.67;98.76;99109.07;1753570;80;21154;-88
2021/05/08 04:27:50;;;;;;;17.80;10.82;;;;;;;11.67;98.58;99110.39;1776862;80;21197;-89
2021/05/08 04:30:21;;;;;;;16.00;10.53;;;;;;;11.67;98.48;99111.23;1783596;80;21622;-87
2021/05/08 04:32:56;;;;;;;14.13;10.65;;;;;;;11.68;98.50;99102.84;1784034;80;21182;-87
2021/05/08 04:35:23;;;;;;;14.10;10.38;;;;;;;11.70;98.44;99100.97;1783954;80;21183;-89
2021/05/08 04:37:51;;;;;;;14.63;10.45;;;;;;;11.75;98.57;99096.27;1783892;80;21570;-88
2021/05/08 04:40:24;;;;;;;16.97;10.08;;;;;;;11.83;98.36;99107.23;1783633;80;21225;-88
2021/05/08 04:42:54;;;;;;;12.57;9.47;;;;;;;11.87;98.12;99115.39;1784606;80;21238;-86
2021/05/08 04:45:25;;;;;;;12.30;9.63;;;;;;;11.87;98.02;99114.07;1783945;80;21579;-87
2021/05/08 04:47:56;;;;;;;11.65;8.35;;;;;;;11.88;97.95;99123.67;1782654;79;21709;-89
2021/05/08 04:50:25;;;;;;;13.60;8.63;;;;;;;11.89;97.67;99124.52;1773989;79;21163;-90
2021/05/08 04:52:53;;;;;;;14.50;9.63;;;;;;;11.89;97.67;99130.66;1764852;80;21642;-83
2021/05/08 04:55:23;;;;;;;11.83;8.73;;;;;;;11.91;97.79;99127.91;1783173;79;21241;-79
2021/05/08 04:57:51;;;;;;;10.90;8.33;;;;;;;11.93;97.60;99133.48;1783247;80;21190;-73
2021/05/08 05:00:20;;;;;;;11.85;8.10;;;;;;;11.91;97.31;99136.67;1782894;80;21590;-72
2021/05/08 05:02:48;;;;;;;11.57;7.65;;;;;;;11.93;97.08;99139.23;1782943;80;21464;-74
2021/05/08 05:05:17;;;;;;;11.80;8.50;;;;;;;11.93;96.73;99142.72;1782770;80;21181;-73
2021/05/08 05:07:47;;;;;;;11.28;7.60;;;;;;;11.93;96.30;99147.14;1774821;79;21191;-72
2021/05/08 05:10:15;;;;;;;9.47;7.67;;;;;;;11.93;96.20;99136.12;1752724;81;21161;-72
2021/05/08 05:12:44;;;;;;;9.45;7.92;;;;;;;11.94;95.92;99145.75;1743125;80;21611;-74
2021/05/08 05:15:16;;;;;;;11.43;7.60;;;;;;;11.96;95.30;99150.47;1729195;81;21637;-74
2021/05/08 05:17:45;;;;;;;10.50;7.50;;;;;;;11.96;94.81;99150.47;1752928;81;21198;-72
2021/05/08 05:20:14;;;;;;;11.38;6.90;;;;;;;11.95;94.38;99151.39;1752498;81;21324;-73
2021/05/08 05:22:42;;;;;;;8.15;6.50;;;;;;;11.97;94.35;99155.27;1782838;80;21616;-73
2021/05/08 05:25:14;;;;;;;11.18;7.10;;;;;;;11.95;94.32;99143.48;1768176;80;21205;-73
2021/05/08 05:27:42;;;;;;;13.32;7.15;;;;;;;11.96;94.12;99153.11;1757097;80;21920;-72
2021/05/08 05:30:11;;;;;;;9.33;7.45;;;;;;;11.96;94.20;99151.79;1767573;80;21554;-72
2021/05/08 05:32:39;;;;;;;10.13;5.97;;;;;;;11.95;94.25;99148.75;1752539;80;21323;-74
2021/05/08 05:35:09;;;;;;;11.70;7.45;;;;;;;11.96;94.17;99153.11;1752602;81;22135;-77
2021/05/08 05:37:37;;;;;;;13.70;8.38;;;;;;;11.98;93.92;99155.64;1752562;81;21197;-78
2021/05/08 05:40:07;;;;;;;10.55;7.60;;;;;;;12.01;93.50;99154.61;1752890;81;21367;-78
2021/05/08 05:42:35;;;;;;;9.43;7.10;;;;;;;12.03;93.21;99150.09;1747834;80;21285;-77
2021/05/08 05:45:03;;;;;;;12.43;7.45;;;;;;;12.04;93.05;99146.53;1751440;81;21330;-78
2021/05/08 05:47:36;;;;;;;8.53;6.17;;;;;;;12.04;92.25;99153.97;1753054;81;23081;-77
2021/05/08 05:50:06;;;;;;;10.40;6.70;;;;;;;12.06;91.27;99159.17;1752635;81;21151;-78
2021/05/08 05:52:34;;;;;;;8.85;6.37;;;;;;;12.11;91.06;99163.70;1776498;80;21190;-78
2021/05/08 05:55:02;;;;;;;6.92;6.17;;;;;;;12.21;90.54;99158.72;1783352;80;21601;-76
2021/05/08 05:57:30;;;;;;;11.10;5.80;;;;;;;12.27;89.92;99153.93;1783971;80;21865;-78
2021/05/08 06:00:03;;;;;;;8.45;6.10;;;;;;;12.37;89.11;99152.91;1742663;81;21447;-77
2021/05/08 06:02:34;;;;;;;7.00;4.90;;;;;;;12.56;88.49;99151.31;1755081;80;21162;-77
2021/05/08 06:05:02;;;;;;;9.28;6.47;;;;;;;12.56;88.49;99151.31;1780053;80;21151;-77
2021/05/08 06:07:30;;;;;;;10.30;5.75;;;;;;;12.64;87.90;99149.07;1784087;80;21171;-77
2021/05/08 06:09:59;;;;;;;7.97;5.87;;;;;;;12.70;87.41;99156.63;1783064;80;21372;-77
2021/05/08 06:12:29;;;;;;;8.90;5.92;;;;;;;12.76;86.85;99154.91;1781206;79;21335;-77
2021/05/08 06:14:58;;;;;;;7.55;4.92;;;;;;;12.87;86.92;99160.02;1778276;80;21175;-79
2021/05/08 06:17:26;;;;;;;7.60;5.22;;;;;;;12.97;85.91;99162.45;1764966;79;21142;-76
2021/05/08 06:19:56;;;;;;;6.60;4.22;;;;;;;13.01;85.12;99162.66;1778501;79;21808;-77
2021/05/08 06:22:23;;;;;;;8.58;4.50;;;;;;;13.03;84.02;99171.34;1777077;80;21769;-77
2021/05/08 06:24:52;;;;;;;6.53;4.05;;;;;;;13.03;83.10;99167.38;1779171;80;21546;-77
2021/05/08 06:27:22;;;;;;;4.87;4.12;;;;;;;12.99;81.63;99166.70;1782668;79;21146;-78
2021/05/08 06:29:51;;;;;;;6.92;4.00;;;;;;;12.96;80.82;99164.73;1779962;79;21332;-78
2021/05/08 06:32:19;;;;;;;5.35;3.55;;;;;;;12.86;81.04;99166.23;1780359;79;21171;-77
2021/05/08 06:34:49;;;;;;;4.20;3.67;;;;;;;12.77;81.38;99165.88;1770637;79;21866;-77
2021/05/08 06:37:17;;;;;;;6.40;3.52;;;;;;;12.64;80.91;99166.23;1777707;79;21629;-78
2021/05/08 06:39:46;;;;;;;4.25;3.50;;;;;;;12.54;81.72;99174.36;1782247;79;21609;-77
2021/05/08 06:42:14;;;;;;;5.37;3.22;;;;;;;12.50;82.52;99171.03;1779437;79;21190;-78
2021/05/08 06:44:44;;;;;;;5.65;3.00;;;;;;;12.52;82.59;99177.55;1780647;79;21119;-79
2021/05/08 06:47:15;;;;;;;5.62;3.20;;;;;;;12.50;81.69;99178.95;1779695;79;22229;-78
2021/05/08 06:49:43;;;;;;;6.85;3.67;;;;;;;12.49;81.49;99179.04;1774717;79;21146;-78
2021/05/08 06:52:12;;;;;;;8.10;2.90;;;;;;;12.45;81.42;99178.87;1781219;79;21214;-78
2021/05/08 06:54:40;;;;;;;6.40;3.00;;;;;;;12.39;82.10;99186.19;1777723;79;21177;-75
2021/05/08 06:57:07;;;;;;;3.37;2.87;;;;;;;12.37;82.22;99191.19;1776320;79;21180;-75
2021/05/08 06:59:35;;;;;;;5.20;2.92;;;;;;;12.32;82.69;99191.46;1779121;79;21431;-73
2021/05/08 07:02:04;;;;;;;4.78;2.92;;;;;;;12.26;83.19;99196.25;1777379;79;21191;-71
2021/05/08 07:04:33;;;;;;;4.55;2.80;;;;;;;12.15;83.16;99200.86;1778481;79;22312;-75
2021/05/08 07:07:01;;;;;;;3.10;2.27;;;;;;;12.07;82.96;99209.67;1778637;79;21186;-75
2021/05/08 07:09:30;;;;;;;2.80;2.52;;;;;;;11.93;83.60;99213.95;1776481;79;21243;-71
2021/05/08 07:11:58;;;;;;;3.00;2.60;;;;;;;11.84;83.79;99221.03;1777623;80;21358;-74
2021/05/08 07:14:26;;;;;;;9.15;4.08;;;;;;;11.69;84.10;99220.61;1777825;79;21139;-74
2021/05/08 07:16:57;;;;;;;8.95;4.15;;;;;;;11.55;84.92;99221.38;1778704;79;21179;-75
2021/05/08 07:19:25;;;;;;;8.83;3.42;;;;;;;11.42;85.23;99237.00;1778338;80;21197;-75
2021/05/08 07:21:53;;;;;;;8.95;3.60;;;;;;;11.35;86.11;99234.33;1778444;80;21167;-74
2021/05/08 07:24:23;;;;;;;7.75;3.42;;;;;;;11.31;86.50;99237.58;1778216;80;21210;-74
2021/05/08 07:26:52;;;;;;;10.03;5.15;;;;;;;11.27;86.55;99241.78;1778479;79;21170;-74
2021/05/08 07:29:20;;;;;;;11.88;4.45;;;;;;;11.20;87.34;99244.37;1778379;79;21206;-74
2021/05/08 07:31:48;;;;;;;9.08;3.75;;;;;;;11.13;87.52;99245.16;1778427;79;21183;-75
2021/05/08 07:34:16;;;;;;;8.38;3.83;;;;;;;11.08;87.95;99248.04;1778328;79;21301;-75
2021/05/08 07:36:45;;;;;;;7.58;3.77;;;;;;;11.05;88.36;99261.38;1778321;79;21369;-75
2021/05/08 07:39:13;;;;;;;6.28;3.62;;;;;;;11.04;88.93;99258.82;1777903;79;21151;-74
2021/05/08 07:41:42;;;;;;;6.67;3.92;;;;;;;10.96;89.23;99273.73;1778620;79;21162;-75
2021/05/08 07:44:10;;;;;;;9.30;3.30;;;;;;;10.89;89.65;99275.83;1775725;79;21255;-75
2021/05/08 07:46:40;;;;;;;9.38;3.87;;;;;;;10.83;89.78;99284.50;1778852;79;21190;-76
2021/05/08 07:49:09;;;;;;;6.05;3.20;;;;;;;10.71;89.77;99289.47;1764194;79;21209;-76
2021/05/08 07:51:37;;;;;;;4.92;3.65;;;;;;;10.63;89.76;99298.70;1724007;83;21175;-75
2021/05/08 07:54:07;;;;;;;5.10;3.27;;;;;;;10.52;89.50;99305.82;1758460;81;21665;-75
2021/05/08 07:56:35;;;;;;;8.00;3.90;;;;;;;10.42;89.29;99315.09;1769593;80;21601;-76
2021/05/08 07:59:05;;;;;;;7.33;4.05;;;;;;;10.29;89.74;99314.85;1767356;81;21687;-74
2021/05/08 08:01:33;;;;;;;6.15;3.67;;;;;;;10.20;90.35;99319.22;1777253;80;22355;-76
2021/05/08 08:04:02;;;;;;;5.67;3.20;;;;;;;10.10;90.65;99322.76;1765481;80;21170;-75
2021/05/08 08:06:30;;;;;;;6.55;3.55;;;;;;;10.02;90.20;99324.89;1759440;81;21644;-76
2021/05/08 08:08:59;;;;;;;8.48;3.98;;;;;;;9.94;90.71;99334.91;1747094;81;21653;-77
2021/05/08 08:11:29;;;;;;;6.75;3.40;;;;;;;9.83;90.29;99342.84;1744723;82;21190;-75
2021/05/08 08:13:57;;;;;;;5.65;4.10;;;;;;;9.75;89.66;99344.13;1745267;82;21337;-74
2021/05/08 08:16:25;;;;;;;4.72;3.92;;;;;;;9.66;88.85;99342.76;1737494;82;21135;-71
2021/05/08 08:18:53;;;;;;;5.78;4.53;;;;;;;9.61;89.11;99354.80;1725518;82;21178;-74
2021/05/08 08:21:21;;;;;;;6.35;4.40;;;;;;;9.58;88.37;99359.36;1732410;82;21214;-72
2021/05/08 08:23:50;;;;;;;7.90;4.87;;;;;;;9.61;88.59;99360.52;1732668;81;21176;-73
2021/05/08 08:26:18;;;;;;;11.68;4.70;;;;;;;9.64;88.40;99371.77;1727313;83;21530;-72
2021/05/08 08:28:46;;;;;;;6.92;4.85;;;;;;;9.69;88.58;99365.45;1721300;83;21159;-75
2021/05/08 08:31:15;;;;;;;5.72;4.83;;;;;;;9.74;88.22;99363.00;1771998;80;21166;-73
2021/05/08 08:33:45;;;;;;;7.53;4.72;;;;;;;9.82;88.24;99359.56;1775911;80;21214;-74
2021/05/08 08:36:14;;;;;;;10.15;4.35;;;;;;;9.98;87.95;99370.67;1771098;80;21779;-75
2021/05/08 08:38:43;;;;;;;8.70;4.85;;;;;;;10.05;86.50;99360.24;1776003;80;22302;-73
2021/05/08 08:41:11;;;;;;;7.67;5.15;;;;;;;10.05;85.50;99366.82;1775596;80;21210;-74
2021/05/08 08:43:40;;;;;;;7.97;4.78;;;;;;;10.03;85.47;99372.61;1775359;80;21167;-74
2021/05/08 08:46:08;;;;;;;6.53;4.67;;;;;;;10.06;85.86;99365.91;1774232;80;21132;-73
2021/05/08 08:48:36;;;;;;;11.22;4.85;;;;;;;10.06;85.89;99369.86;1773969;79;21607;-74
2021/05/08 08:51:05;;;;;;;4.75;3.90;;;;;;;10.11;85.88;99371.80;1774032;79;21266;-75
2021/05/08 08:53:33;;;;;;;5.62;4.05;;;;;;;10.18;84.81;99385.53;1774871;80;21623;-72
2021/05/08 08:56:02;;;;;;;6.12;3.22;;;;;;;10.20;83.54;99383.21;1775553;80;21171;-73
2021/05/08 08:58:32;;;;;;;4.55;3.10;;;;;;;10.20;84.05;99385.84;1774996;80;21791;-71
2021/05/08 09:01:00;;;;;;;4.62;3.12;;;;;;;10.21;82.88;99398.06;1775670;79;21195;-74
2021/05/08 09:03:28;;;;;;;4.97;3.20;;;;;;;10.21;82.44;99395.90;1763517;80;21359;-74
2021/05/08 09:06:00;;;;;;;4.42;3.17;;;;;;;10.15;81.96;99390.48;1746774;80;21181;-76
2021/05/08 09:08:29;;;;;;;5.30;3.00;;;;;;;10.07;80.35;99396.08;1771618;80;21162;-74
2021/05/08 09:11:21;;;;;;;;;;;;;;;10.00;80.14;99418.80;1776066;79;21638;-75
2021/05/08 09:14:14;;;;;;;6.08;3.37;;;;;;;9.93;81.01;99417.38;1775058;80;20226;-74
2021/05/08 09:17:26;;;;;;;3.70;2.60;;;;;;;9.85;82.24;99423.84;1768840;80;21421;-75
2021/05/08 09:20:02;;;;;;;3.72;2.72;;;;;;;9.75;81.24;99425.16;1772883;80;21188;-77
2021/05/08 09:22:36;;;;;;;5.70;2.85;;;;;;;9.70;82.11;99433.73;1777955;80;21615;-75
2021/05/08 09:25:16;;;;;;;3.75;2.77;;;;;;;9.65;81.58;99434.40;1776782;79;21320;-76
2021/05/08 09:27:52;;;;;;;4.15;2.60;;;;;;;9.59;81.85;99442.55;1777700;79;21583;-75
2021/05/08 09:30:29;;;;;;;4.25;2.87;;;;;;;9.49;81.35;99456.56;1767278;79;22061;-74
2021/05/08 09:32:59;;;;;;;2.75;2.30;;;;;;;9.38;82.31;99439.92;1773296;80;21174;-76
2021/05/08 09:35:35;;;;;;;3.65;2.35;;;;;;;9.39;83.26;99451.31;1767469;80;21574;-74
2021/05/08 09:38:16;;;;;;;4.42;2.27;;;;;;;9.42;84.48;99438.88;1773134;80;21172;-76
2021/05/08 09:40:49;;;;;;;4.80;2.50;;;;;;;9.50;84.52;99442.95;1767379;79;22210;-74
2021/05/08 09:43:21;;;;;;;3.75;2.62;;;;;;;9.48;84.08;99447.41;1775295;80;22274;-75
2021/05/08 09:46:08;;;;;;;4.25;3.20;;;;;;;9.52;84.94;99453.78;1769011;78;21182;31
2021/05/08 09:48:38;;;;;;;5.08;2.90;;;;;;;9.59;84.32;99451.74;1727958;77;21232;-70
2021/05/08 09:51:28;;;;;;;3.42;2.60;;;;;;;9.61;84.24;99455.16;1737605;80;21648;-69
2021/05/08 09:54:12;;;;;;;4.78;2.65;;;;;;;9.59;84.36;99464.89;1731304;81;21230;-67
2021/05/08 09:56:46;;;;;;;2.85;2.50;;;;;;;9.54;83.93;99473.44;1738554;79;21218;-67
2021/05/08 09:59:31;;;;;;;3.67;2.75;;;;;;;9.50;83.55;99470.11;1739886;81;21167;-69
2021/05/08 10:02:08;;;;;;;7.72;2.92;;;;;;;9.48;84.32;99469.75;1738320;81;21145;-70
2021/05/08 10:07:24;;;;;;;6.83;2.77;;;;;;;9.66;84.04;99465.02;1838118;77;28803;-70
2021/05/08 10:09:59;;;;;;;4.80;2.72;;;;;;;9.65;84.17;99458.91;1791079;78;21137;-69
2021/05/08 10:12:29;;;;;;;5.30;2.80;;;;;;;9.71;84.15;99471.38;1757454;80;21262;-69
2021/05/08 10:14:59;;;;;;;4.05;2.60;;;;;;;9.77;84.19;99469.34;1790975;78;21180;-69
2021/05/08 10:17:28;;;;;;;19.00;3.95;;;;;;;9.87;84.97;99481.17;1793091;78;21720;-69
2021/05/08 10:20:08;;;;;;;4.00;3.20;;;;;;;10.01;84.88;99481.88;1795873;78;22534;-69
2021/05/08 10:22:51;;;;;;;4.62;2.75;;;;;;;10.13;84.54;99487.04;1792003;78;21168;-70
2021/05/08 10:25:19;;;;;;;4.55;3.35;;;;;;;10.19;82.05;99492.03;1785712;78;21659;-69
2021/05/08 10:27:48;;;;;;;3.05;2.45;;;;;;;10.20;81.67;99488.93;1786225;78;21179;-67
2021/05/08 10:30:32;;;;;;;4.28;2.58;;;;;;;10.25;81.64;99495.68;1798520;78;21600;-69
2021/05/08 10:33:02;;;;;;;3.47;2.83;;;;;;;10.28;80.50;99507.44;1790303;78;21138;-68
2021/05/08 10:35:45;;;;;;;4.25;2.70;;;;;;;10.29;81.20;99509.12;1765008;80;21571;-68
2021/05/08 10:38:23;;;;;;;3.00;2.08;;;;;;;10.25;80.44;99511.47;1791724;78;21174;-69
2021/05/08 10:41:04;;;;;;;2.47;2.25;;;;;;;10.15;78.99;99510.19;1793669;78;21544;-68
2021/05/08 10:43:54;;;;;;;3.00;2.33;;;;;;;10.03;79.03;99512.03;1790708;78;22172;-69
2021/05/08 10:46:27;;;;;;;6.33;3.15;;;;;;;9.95;79.54;99512.86;1766631;80;21183;-68
2021/05/08 10:49:13;;;;;;;4.80;2.20;;;;;;;9.91;79.07;99517.84;1755283;80;21242;-69
2021/05/08 10:51:58;;;;;;;5.03;3.17;;;;;;;9.96;78.94;99511.92;1801574;79;21191;-68
2021/05/08 10:55:18;;;;;;;;;;;;;;;;;;;;;
2021/05/08 10:58:36;;;;;;;4.40;2.85;;;;;;;10.19;79.72;99517.03;1772801;79;21195;-70
2021/05/08 11:01:08;;;;;;;9.25;2.90;;;;;;;10.30;78.22;99525.77;1786201;79;21190;-68
2021/05/08 11:03:50;;;;;;;12.07;4.20;;;;;;;10.32;78.67;99532.28;1785440;80;21142;-69
2021/05/08 11:06:18;;;;;;;6.97;3.90;;;;;;;10.35;77.87;99524.23;1774993;80;22217;-71
2021/05/08 11:08:51;;;;;;;5.22;2.25;;;;;;;10.47;78.72;99530.28;1764278;79;21139;-70
2021/05/08 11:11:24;;;;;;;2.58;1.98;;;;;;;10.68;78.64;99539.80;1792017;79;21238;-69
2021/05/08 11:13:55;;;;;;;2.62;2.08;;;;;;;10.89;76.98;99537.08;1792532;79;21163;-69
2021/05/08 11:16:31;;;;;;;3.12;2.10;;;;;;;10.93;74.35;99539.97;1775603;79;21187;-69
2021/05/08 11:19:01;;;;;;;2.25;1.60;;;;;;;10.86;73.67;99538.09;1767405;79;21197;-69
2021/05/08 11:21:35;;;;;;;3.52;2.27;;;;;;;10.78;74.88;99538.05;1780587;79;21214;-67
2021/05/08 11:24:05;;;;;;;2.95;1.55;;;;;;;10.85;75.70;99539.47;1786530;79;21303;-70
2021/05/08 11:26:42;;;;;;;4.25;2.17;;;;;;;10.90;74.87;99545.36;1787541;79;21218;-71
2021/05/08 11:29:25;;;;;;;2.10;1.50;;;;;;;10.87;75.67;99570.55;1782687;79;21578;-71
2021/05/08 11:32:04;;;;;;;2.72;1.30;;;;;;;10.67;73.07;99582.87;1763529;79;22247;-70
2021/05/08 11:34:53;;;;;;;1.67;1.27;;;;;;;10.35;73.49;99577.73;1718021;82;21195;-69
2021/05/08 11:37:38;;;;;;;2.15;1.07;;;;;;;10.12;74.37;99583.98;1780184;79;28832;-68
2021/05/08 11:40:08;;;;;;;1.47;1.10;;;;;;;9.93;75.81;99589.66;1753781;80;21151;-67
2021/05/08 11:42:38;;;;;;;3.37;1.37;;;;;;;9.90;76.39;99601.64;1752105;80;21372;-69
2021/05/08 11:45:11;;;;;;;2.72;1.30;;;;;;;9.86;77.28;99606.16;1721184;80;21231;-68
2021/05/08 11:47:39;;;;;;;1.30;0.90;;;;;;;9.83;77.31;99613.72;1758379;80;21168;-69
2021/05/08 11:51:25;;;;;;;3.65;1.22;;;;;;;9.74;77.66;99627.72;1765832;79;29132;-68